sensor_id;sensor_type;location;lat;lon;timestamp;temperature;humidity
68251;DHT22;55066;51.560;4.642;2022-11-14T00:01:54;3.76;99.99
68251;DHT22;55066;51.560;4.642;2022-11-14T00:04:38;3.67;99.99
68251;DHT22;55066;51.560;4.642;2022-11-14T00:07:22;3.64;99.99
68251;DHT22;55066;51.560;4.642;2022-11-14T00:10:06;3.62;99.99
68251;DHT22;55066;51.560;4.642;2022-11-14T00:12:50;3.63;99.99
68251;DHT22;55066;51.560;4.642;2022-11-14T00:15:34;3.59;99.99
68251;DHT22;55066;51.560;4.642;2022-11-14T00:18:18;3.58;99.99
68251;DHT22;55066;51.560;4.642;2022-11-14T00:21:02;3.56;99.99
68251;DHT22;55066;51.560;4.642;2022-11-14T00:23:46;3.51;99.99
68251;DHT22;55066;51.560;4.642;2022-11-14T00:26:30;3.51;99.99
68251;DHT22;55066;51.560;4.642;2022-11-14T00:29:14;3.43;99.99
68251;DHT22;55066;51.560;4.642;2022-11-14T00:31:58;3.46;99.99
68251;DHT22;55066;51.560;4.642;2022-11-14T00:34:42;3.46;99.99
68251;DHT22;55066;51.560;4.642;2022-11-14T00:37:26;3.45;99.99
68251;DHT22;55066;51.560;4.642;2022-11-14T00:40:10;3.55;99.99
68251;DHT22;55066;51.560;4.642;2022-11-14T00:42:54;3.70;99.99
68251;DHT22;55066;51.560;4.642;2022-11-14T00:45:38;3.77;99.99
68251;DHT22;55066;51.560;4.642;2022-11-14T00:48:22;3.81;99.99
68251;DHT22;55066;51.560;4.642;2022-11-14T00:51:06;3.52;99.99
68251;DHT22;55066;51.560;4.642;2022-11-14T00:53:50;3.35;99.99
68251;DHT22;55066;51.560;4.642;2022-11-14T00:56:34;3.35;99.99
68251;DHT22;55066;51.560;4.642;2022-11-14T00:59:18;3.32;99.99
68251;DHT22;55066;51.560;4.642;2022-11-14T01:02:02;3.46;99.99
68251;DHT22;55066;51.560;4.642;2022-11-14T01:04:46;3.28;99.99
68251;DHT22;55066;51.560;4.642;2022-11-14T01:07:30;3.29;99.99
68251;DHT22;55066;51.560;4.642;2022-11-14T01:10:15;3.34;99.99
68251;DHT22;55066;51.560;4.642;2022-11-14T01:12:58;3.35;99.99
68251;DHT22;55066;51.560;4.642;2022-11-14T01:15:45;3.26;99.99
68251;DHT22;55066;51.560;4.642;2022-11-14T01:18:29;3.34;99.99
68251;DHT22;55066;51.560;4.642;2022-11-14T01:21:13;3.40;99.99
68251;DHT22;55066;51.560;4.642;2022-11-14T01:23:57;3.38;99.99
68251;DHT22;55066;51.560;4.642;2022-11-14T01:26:41;3.26;99.99
68251;DHT22;55066;51.560;4.642;2022-11-14T01:29:25;3.17;99.99
68251;DHT22;55066;51.560;4.642;2022-11-14T01:32:10;3.15;99.99
68251;DHT22;55066;51.560;4.642;2022-11-14T01:34:54;3.08;99.99
68251;DHT22;55066;51.560;4.642;2022-11-14T01:37:38;3.05;99.99
68251;DHT22;55066;51.560;4.642;2022-11-14T01:40:22;3.08;99.99
68251;DHT22;55066;51.560;4.642;2022-11-14T01:54:54;3.29;99.99
68251;DHT22;55066;51.560;4.642;2022-11-14T01:57:43;3.07;99.99
68251;DHT22;55066;51.560;4.642;2022-11-14T02:00:28;3.22;99.99
68251;DHT22;55066;51.560;4.642;2022-11-14T02:03:14;3.45;99.99
68251;DHT22;55066;51.560;4.642;2022-11-14T02:06:00;3.26;99.99
68251;DHT22;55066;51.560;4.642;2022-11-14T02:08:44;3.08;99.99
68251;DHT22;55066;51.560;4.642;2022-11-14T02:11:31;3.12;99.99
68251;DHT22;55066;51.560;4.642;2022-11-14T02:14:15;3.32;99.99
68251;DHT22;55066;51.560;4.642;2022-11-14T02:16:59;3.28;99.99
68251;DHT22;55066;51.560;4.642;2022-11-14T02:22:32;3.39;99.99
68251;DHT22;55066;51.560;4.642;2022-11-14T02:25:17;3.39;99.99
68251;DHT22;55066;51.560;4.642;2022-11-14T02:28:02;3.21;99.99
68251;DHT22;55066;51.560;4.642;2022-11-14T02:30:47;3.31;99.99
68251;DHT22;55066;51.560;4.642;2022-11-14T02:33:30;3.62;99.99
68251;DHT22;55066;51.560;4.642;2022-11-14T02:36:14;3.59;99.99
68251;DHT22;55066;51.560;4.642;2022-11-14T02:38:58;3.62;99.99
68251;DHT22;55066;51.560;4.642;2022-11-14T02:41:42;3.53;99.99
68251;DHT22;55066;51.560;4.642;2022-11-14T02:44:26;3.39;99.99
68251;DHT22;55066;51.560;4.642;2022-11-14T02:47:10;3.51;99.99
68251;DHT22;55066;51.560;4.642;2022-11-14T02:49:54;3.59;99.99
68251;DHT22;55066;51.560;4.642;2022-11-14T02:52:38;3.58;99.99
68251;DHT22;55066;51.560;4.642;2022-11-14T02:55:22;3.42;99.99
68251;DHT22;55066;51.560;4.642;2022-11-14T02:58:06;3.31;99.99
68251;DHT22;55066;51.560;4.642;2022-11-14T03:00:50;3.26;99.99
68251;DHT22;55066;51.560;4.642;2022-11-14T03:03:34;3.11;99.99
68251;DHT22;55066;51.560;4.642;2022-11-14T03:06:18;3.22;99.99
68251;DHT22;55066;51.560;4.642;2022-11-14T03:09:02;3.25;99.99
68251;DHT22;55066;51.560;4.642;2022-11-14T03:11:46;3.28;99.99
68251;DHT22;55066;51.560;4.642;2022-11-14T03:14:30;3.01;99.99
68251;DHT22;55066;51.560;4.642;2022-11-14T03:17:15;2.98;99.99
68251;DHT22;55066;51.560;4.642;2022-11-14T03:19:59;2.93;99.99
68251;DHT22;55066;51.560;4.642;2022-11-14T03:22:43;2.98;99.99
68251;DHT22;55066;51.560;4.642;2022-11-14T03:25:27;2.84;99.99
68251;DHT22;55066;51.560;4.642;2022-11-14T03:28:11;2.84;99.99
68251;DHT22;55066;51.560;4.642;2022-11-14T03:30:55;2.75;99.99
68251;DHT22;55066;51.560;4.642;2022-11-14T03:33:39;2.61;99.99
68251;DHT22;55066;51.560;4.642;2022-11-14T03:36:23;2.60;99.99
68251;DHT22;55066;51.560;4.642;2022-11-14T03:39:07;2.54;99.99
68251;DHT22;55066;51.560;4.642;2022-11-14T03:41:51;2.54;99.99
68251;DHT22;55066;51.560;4.642;2022-11-14T03:44:35;2.50;99.99
68251;DHT22;55066;51.560;4.642;2022-11-14T03:47:19;2.49;99.99
68251;DHT22;55066;51.560;4.642;2022-11-14T03:50:04;2.46;99.99
68251;DHT22;55066;51.560;4.642;2022-11-14T03:52:48;2.57;99.99
68251;DHT22;55066;51.560;4.642;2022-11-14T03:55:32;2.52;99.99
68251;DHT22;55066;51.560;4.642;2022-11-14T03:58:17;2.49;99.99
68251;DHT22;55066;51.560;4.642;2022-11-14T04:01:01;2.43;99.99
68251;DHT22;55066;51.560;4.642;2022-11-14T04:03:46;2.61;99.99
68251;DHT22;55066;51.560;4.642;2022-11-14T04:06:30;2.69;99.99
68251;DHT22;55066;51.560;4.642;2022-11-14T04:09:14;2.69;99.99
68251;DHT22;55066;51.560;4.642;2022-11-14T04:11:58;2.53;99.99
68251;DHT22;55066;51.560;4.642;2022-11-14T04:14:42;2.32;99.99
68251;DHT22;55066;51.560;4.642;2022-11-14T04:17:26;2.25;99.99
68251;DHT22;55066;51.560;4.642;2022-11-14T04:20:10;2.31;99.99
68251;DHT22;55066;51.560;4.642;2022-11-14T04:22:55;2.38;99.99
68251;DHT22;55066;51.560;4.642;2022-11-14T04:25:39;2.36;99.99
68251;DHT22;55066;51.560;4.642;2022-11-14T04:28:23;2.28;99.99
68251;DHT22;55066;51.560;4.642;2022-11-14T04:31:07;2.21;99.99
68251;DHT22;55066;51.560;4.642;2022-11-14T04:33:51;2.26;99.99
68251;DHT22;55066;51.560;4.642;2022-11-14T04:36:35;2.29;99.99
68251;DHT22;55066;51.560;4.642;2022-11-14T04:39:19;2.28;99.99
68251;DHT22;55066;51.560;4.642;2022-11-14T04:42:03;2.15;99.99
68251;DHT22;55066;51.560;4.642;2022-11-14T04:44:47;2.14;99.99
68251;DHT22;55066;51.560;4.642;2022-11-14T04:47:31;2.18;99.99
68251;DHT22;55066;51.560;4.642;2022-11-14T04:50:15;2.38;99.99
68251;DHT22;55066;51.560;4.642;2022-11-14T04:52:59;2.10;99.99
68251;DHT22;55066;51.560;4.642;2022-11-14T04:55:43;2.11;99.99
68251;DHT22;55066;51.560;4.642;2022-11-14T04:58:29;2.01;99.99
68251;DHT22;55066;51.560;4.642;2022-11-14T05:01:13;2.05;99.99
68251;DHT22;55066;51.560;4.642;2022-11-14T05:03:57;2.04;99.99
68251;DHT22;55066;51.560;4.642;2022-11-14T05:06:41;2.01;99.99
68251;DHT22;55066;51.560;4.642;2022-11-14T05:09:26;1.93;99.99
68251;DHT22;55066;51.560;4.642;2022-11-14T05:12:09;1.85;99.99
68251;DHT22;55066;51.560;4.642;2022-11-14T05:14:53;1.85;99.99
68251;DHT22;55066;51.560;4.642;2022-11-14T05:17:37;1.83;99.99
68251;DHT22;55066;51.560;4.642;2022-11-14T05:20:21;1.83;99.99
68251;DHT22;55066;51.560;4.642;2022-11-14T05:23:05;1.81;99.99
68251;DHT22;55066;51.560;4.642;2022-11-14T05:28:47;1.81;99.99
68251;DHT22;55066;51.560;4.642;2022-11-14T05:31:31;1.78;99.99
68251;DHT22;55066;51.560;4.642;2022-11-14T05:34:15;1.80;99.99
68251;DHT22;55066;51.560;4.642;2022-11-14T05:36:59;1.74;99.99
68251;DHT22;55066;51.560;4.642;2022-11-14T05:39:43;1.71;99.99
68251;DHT22;55066;51.560;4.642;2022-11-14T05:42:27;1.71;99.99
68251;DHT22;55066;51.560;4.642;2022-11-14T05:45:11;1.71;99.99
68251;DHT22;55066;51.560;4.642;2022-11-14T05:47:55;1.70;99.99
68251;DHT22;55066;51.560;4.642;2022-11-14T05:50:40;1.70;99.99
68251;DHT22;55066;51.560;4.642;2022-11-14T05:53:24;1.63;99.99
68251;DHT22;55066;51.560;4.642;2022-11-14T05:56:10;1.70;99.99
68251;DHT22;55066;51.560;4.642;2022-11-14T05:58:54;1.68;99.99
68251;DHT22;55066;51.560;4.642;2022-11-14T06:01:38;1.62;99.99
68251;DHT22;55066;51.560;4.642;2022-11-14T06:04:22;1.57;99.99
68251;DHT22;55066;51.560;4.642;2022-11-14T06:07:06;1.62;99.99
68251;DHT22;55066;51.560;4.642;2022-11-14T06:09:50;1.66;99.99
68251;DHT22;55066;51.560;4.642;2022-11-14T06:12:34;1.57;99.99
68251;DHT22;55066;51.560;4.642;2022-11-14T06:15:19;1.55;99.99
68251;DHT22;55066;51.560;4.642;2022-11-14T06:18:03;1.60;99.99
68251;DHT22;55066;51.560;4.642;2022-11-14T06:20:47;1.46;99.99
68251;DHT22;55066;51.560;4.642;2022-11-14T06:23:31;1.43;99.99
68251;DHT22;55066;51.560;4.642;2022-11-14T06:26:28;1.35;99.99
68251;DHT22;55066;51.560;4.642;2022-11-14T06:29:12;1.35;99.99
68251;DHT22;55066;51.560;4.642;2022-11-14T06:31:56;1.38;99.99
68251;DHT22;55066;51.560;4.642;2022-11-14T06:34:40;1.38;99.99
68251;DHT22;55066;51.560;4.642;2022-11-14T06:37:25;1.42;99.99
68251;DHT22;55066;51.560;4.642;2022-11-14T06:40:09;1.42;99.99
68251;DHT22;55066;51.560;4.642;2022-11-14T06:42:56;1.34;99.99
68251;DHT22;55066;51.560;4.642;2022-11-14T06:45:40;1.40;99.99
68251;DHT22;55066;51.560;4.642;2022-11-14T06:48:24;1.36;99.99
68251;DHT22;55066;51.560;4.642;2022-11-14T06:51:10;1.42;99.99
68251;DHT22;55066;51.560;4.642;2022-11-14T06:53:54;1.40;99.99
68251;DHT22;55066;51.560;4.642;2022-11-14T06:56:38;1.39;99.99
68251;DHT22;55066;51.560;4.642;2022-11-14T06:59:22;1.29;99.99
68251;DHT22;55066;51.560;4.642;2022-11-14T07:02:12;1.28;99.99
68251;DHT22;55066;51.560;4.642;2022-11-14T07:04:57;1.36;99.99
68251;DHT22;55066;51.560;4.642;2022-11-14T07:07:41;1.36;99.99
68251;DHT22;55066;51.560;4.642;2022-11-14T07:10:25;1.57;99.99
68251;DHT22;55066;51.560;4.642;2022-11-14T07:13:09;1.43;99.99
68251;DHT22;55066;51.560;4.642;2022-11-14T07:15:54;1.42;99.99
68251;DHT22;55066;51.560;4.642;2022-11-14T07:18:38;1.31;99.99
68251;DHT22;55066;51.560;4.642;2022-11-14T07:21:23;1.39;99.99
68251;DHT22;55066;51.560;4.642;2022-11-14T08:29:35;2.90;99.99
68251;DHT22;55066;51.560;4.642;2022-11-14T08:32:19;3.00;99.99
68251;DHT22;55066;51.560;4.642;2022-11-14T08:35:04;3.15;99.99
68251;DHT22;55066;51.560;4.642;2022-11-14T08:37:48;3.25;99.99
68251;DHT22;55066;51.560;4.642;2022-11-14T08:40:32;3.21;99.99
68251;DHT22;55066;51.560;4.642;2022-11-14T08:43:16;3.42;99.99
68251;DHT22;55066;51.560;4.642;2022-11-14T08:46:01;3.48;99.99
68251;DHT22;55066;51.560;4.642;2022-11-14T08:48:45;3.43;99.99
68251;DHT22;55066;51.560;4.642;2022-11-14T08:51:29;3.46;99.99
68251;DHT22;55066;51.560;4.642;2022-11-14T08:54:13;3.53;99.99
68251;DHT22;55066;51.560;4.642;2022-11-14T08:56:57;3.72;99.99
68251;DHT22;55066;51.560;4.642;2022-11-14T08:59:41;3.77;99.99
68251;DHT22;55066;51.560;4.642;2022-11-14T09:02:25;3.77;99.99
68251;DHT22;55066;51.560;4.642;2022-11-14T09:05:10;3.97;99.99
68251;DHT22;55066;51.560;4.642;2022-11-14T09:07:54;4.04;99.99
68251;DHT22;55066;51.560;4.642;2022-11-14T09:10:38;4.04;99.99
68251;DHT22;55066;51.560;4.642;2022-11-14T09:13:22;4.08;99.99
68251;DHT22;55066;51.560;4.642;2022-11-14T09:16:06;4.19;99.99
68251;DHT22;55066;51.560;4.642;2022-11-14T09:18:51;4.37;99.99
68251;DHT22;55066;51.560;4.642;2022-11-14T09:21:35;4.39;99.99
68251;DHT22;55066;51.560;4.642;2022-11-14T09:24:19;4.44;99.99
68251;DHT22;55066;51.560;4.642;2022-11-14T09:27:03;4.69;99.99
68251;DHT22;55066;51.560;4.642;2022-11-14T09:29:47;4.76;99.99
68251;DHT22;55066;51.560;4.642;2022-11-14T09:32:31;5.08;99.99
68251;DHT22;55066;51.560;4.642;2022-11-14T09:35:15;5.04;99.99
68251;DHT22;55066;51.560;4.642;2022-11-14T09:38:00;5.13;99.99
68251;DHT22;55066;51.560;4.642;2022-11-14T09:40:55;5.15;99.99
68251;DHT22;55066;51.560;4.642;2022-11-14T09:47:01;5.32;99.99
68251;DHT22;55066;51.560;4.642;2022-11-14T09:49:48;5.49;99.99
68251;DHT22;55066;51.560;4.642;2022-11-14T09:52:37;5.49;99.99
68251;DHT22;55066;51.560;4.642;2022-11-14T09:55:30;5.71;99.99
68251;DHT22;55066;51.560;4.642;2022-11-14T09:58:19;5.90;99.99
68251;DHT22;55066;51.560;4.642;2022-11-14T10:04:29;6.08;99.99
68251;DHT22;55066;51.560;4.642;2022-11-14T10:07:22;6.20;99.99
68251;DHT22;55066;51.560;4.642;2022-11-14T10:10:15;6.39;99.94
68251;DHT22;55066;51.560;4.642;2022-11-14T10:16:22;6.77;98.93
68251;DHT22;55066;51.560;4.642;2022-11-14T10:25:23;7.04;99.84
68251;DHT22;55066;51.560;4.642;2022-11-14T10:28:27;7.24;99.11
68251;DHT22;55066;51.560;4.642;2022-11-14T10:34:34;7.15;97.80
68251;DHT22;55066;51.560;4.642;2022-11-14T10:37:24;7.38;98.02
68251;DHT22;55066;51.560;4.642;2022-11-14T10:40:20;7.41;97.74
68251;DHT22;55066;51.560;4.642;2022-11-14T10:46:22;7.77;97.67
68251;DHT22;55066;51.560;4.642;2022-11-14T10:49:20;7.90;96.40
68251;DHT22;55066;51.560;4.642;2022-11-14T10:52:08;7.91;96.97
68251;DHT22;55066;51.560;4.642;2022-11-14T10:54:58;7.98;96.74
68251;DHT22;55066;51.560;4.642;2022-11-14T10:57:46;8.05;96.39
68251;DHT22;55066;51.560;4.642;2022-11-14T11:00:30;8.14;96.45
68251;DHT22;55066;51.560;4.642;2022-11-14T11:03:14;8.31;95.91
68251;DHT22;55066;51.560;4.642;2022-11-14T11:05:58;7.85;91.04
68251;DHT22;55066;51.560;4.642;2022-11-14T11:08:43;8.15;96.09
68251;DHT22;55066;51.560;4.642;2022-11-14T11:11:55;8.35;95.48
68251;DHT22;55066;51.560;4.642;2022-11-14T11:14:39;8.58;95.32
68251;DHT22;55066;51.560;4.642;2022-11-14T11:17:23;8.58;93.87
68251;DHT22;55066;51.560;4.642;2022-11-14T11:20:30;8.62;94.74
68251;DHT22;55066;51.560;4.642;2022-11-14T11:23:21;8.80;94.51
68251;DHT22;55066;51.560;4.642;2022-11-14T11:26:17;8.69;93.45
68251;DHT22;55066;51.560;4.642;2022-11-14T11:29:13;8.69;93.61
68251;DHT22;55066;51.560;4.642;2022-11-14T11:31:58;9.08;93.71
68251;DHT22;55066;51.560;4.642;2022-11-14T11:34:42;9.11;93.35
68251;DHT22;55066;51.560;4.642;2022-11-14T11:37:30;9.01;93.43
68251;DHT22;55066;51.560;4.642;2022-11-14T11:40:23;9.11;93.71
68251;DHT22;55066;51.560;4.642;2022-11-14T11:43:15;8.96;94.37
68251;DHT22;55066;51.560;4.642;2022-11-14T11:46:02;9.07;93.85
68251;DHT22;55066;51.560;4.642;2022-11-14T11:48:51;9.16;93.25
68251;DHT22;55066;51.560;4.642;2022-11-14T11:51:39;9.32;93.26
68251;DHT22;55066;51.560;4.642;2022-11-14T11:54:29;9.37;92.86
68251;DHT22;55066;51.560;4.642;2022-11-14T11:57:16;9.26;92.69
68251;DHT22;55066;51.560;4.642;2022-11-14T12:00:05;9.24;92.94
68251;DHT22;55066;51.560;4.642;2022-11-14T12:02:50;9.26;92.20
68251;DHT22;55066;51.560;4.642;2022-11-14T12:11:57;9.71;92.56
68251;DHT22;55066;51.560;4.642;2022-11-14T12:27:59;10.11;92.05
68251;DHT22;55066;51.560;4.642;2022-11-14T12:30:48;10.04;90.38
68251;DHT22;55066;51.560;4.642;2022-11-14T12:33:37;10.06;91.06
68251;DHT22;55066;51.560;4.642;2022-11-14T12:36:28;10.06;90.82
68251;DHT22;55066;51.560;4.642;2022-11-14T12:39:30;10.09;90.35
68251;DHT22;55066;51.560;4.642;2022-11-14T12:42:18;10.02;91.19
68251;DHT22;55066;51.560;4.642;2022-11-14T12:48:30;10.25;90.52
68251;DHT22;55066;51.560;4.642;2022-11-14T12:57:42;10.24;89.89
68251;DHT22;55066;51.560;4.642;2022-11-14T13:00:32;10.31;90.24
68251;DHT22;55066;51.560;4.642;2022-11-14T13:09:29;10.13;88.92
68251;DHT22;55066;51.560;4.642;2022-11-14T13:12:25;10.42;88.96
68251;DHT22;55066;51.560;4.642;2022-11-14T13:15:30;10.30;88.72
68251;DHT22;55066;51.560;4.642;2022-11-14T13:18:34;10.22;88.76
68251;DHT22;55066;51.560;4.642;2022-11-14T13:21:37;10.21;89.21
68251;DHT22;55066;51.560;4.642;2022-11-14T13:27:43;10.38;88.49
68251;DHT22;55066;51.560;4.642;2022-11-14T13:31:04;10.38;88.84
68251;DHT22;55066;51.560;4.642;2022-11-14T13:33:51;10.45;88.53
68251;DHT22;55066;51.560;4.642;2022-11-14T13:36:46;10.44;88.70
68251;DHT22;55066;51.560;4.642;2022-11-14T13:52:11;10.48;87.74
68251;DHT22;55066;51.560;4.642;2022-11-14T13:54:56;10.49;86.93
68251;DHT22;55066;51.560;4.642;2022-11-14T14:06:51;10.28;86.52
68251;DHT22;55066;51.560;4.642;2022-11-14T14:09:56;10.27;87.13
68251;DHT22;55066;51.560;4.642;2022-11-14T14:19:15;10.10;87.08
68251;DHT22;55066;51.560;4.642;2022-11-14T14:22:14;10.07;87.86
68251;DHT22;55066;51.560;4.642;2022-11-14T14:25:16;10.02;88.10
68251;DHT22;55066;51.560;4.642;2022-11-14T14:28:13;9.86;88.22
68251;DHT22;55066;51.560;4.642;2022-11-14T14:31:09;9.79;89.10
68251;DHT22;55066;51.560;4.642;2022-11-14T14:33:53;9.76;88.89
68251;DHT22;55066;51.560;4.642;2022-11-14T14:36:48;9.69;89.25
68251;DHT22;55066;51.560;4.642;2022-11-14T14:39:32;9.66;89.68
68251;DHT22;55066;51.560;4.642;2022-11-14T14:42:16;9.63;90.39
68251;DHT22;55066;51.560;4.642;2022-11-14T14:45:02;9.62;90.08
68251;DHT22;55066;51.560;4.642;2022-11-14T14:48:02;9.66;90.70
68251;DHT22;55066;51.560;4.642;2022-11-14T14:50:49;10.57;89.25
68251;DHT22;55066;51.560;4.642;2022-11-14T14:53:34;11.35;85.12
68251;DHT22;55066;51.560;4.642;2022-11-14T17:36:10;6.21;99.99
68251;DHT22;55066;51.560;4.642;2022-11-14T17:38:57;6.17;99.99
68251;DHT22;55066;51.560;4.642;2022-11-14T17:41:41;6.20;99.99
68251;DHT22;55066;51.560;4.642;2022-11-14T17:44:25;6.21;99.99
68251;DHT22;55066;51.560;4.642;2022-11-14T17:47:09;6.18;99.99
68251;DHT22;55066;51.560;4.642;2022-11-14T17:49:53;6.18;99.99
68251;DHT22;55066;51.560;4.642;2022-11-14T17:52:37;6.20;99.99
68251;DHT22;55066;51.560;4.642;2022-11-14T17:55:20;6.18;99.99
68251;DHT22;55066;51.560;4.642;2022-11-14T17:58:04;6.22;99.99
68251;DHT22;55066;51.560;4.642;2022-11-14T18:00:49;6.25;99.99
68251;DHT22;55066;51.560;4.642;2022-11-14T18:03:34;6.22;99.99
68251;DHT22;55066;51.560;4.642;2022-11-14T18:06:19;6.25;99.99
68251;DHT22;55066;51.560;4.642;2022-11-14T18:09:03;6.24;99.99
68251;DHT22;55066;51.560;4.642;2022-11-14T18:11:48;6.20;99.99
68251;DHT22;55066;51.560;4.642;2022-11-14T18:14:32;6.25;99.99
68251;DHT22;55066;51.560;4.642;2022-11-14T18:17:16;6.24;99.99
68251;DHT22;55066;51.560;4.642;2022-11-14T18:20:00;6.21;99.99
68251;DHT22;55066;51.560;4.642;2022-11-14T18:22:45;6.21;99.99
68251;DHT22;55066;51.560;4.642;2022-11-14T18:25:29;6.25;99.99
68251;DHT22;55066;51.560;4.642;2022-11-14T18:28:14;6.29;99.99
68251;DHT22;55066;51.560;4.642;2022-11-14T18:30:58;6.27;99.99
68251;DHT22;55066;51.560;4.642;2022-11-14T18:33:41;6.28;99.99
68251;DHT22;55066;51.560;4.642;2022-11-14T18:36:25;6.24;99.99
68251;DHT22;55066;51.560;4.642;2022-11-14T18:39:09;6.25;99.99
68251;DHT22;55066;51.560;4.642;2022-11-14T18:41:53;6.27;99.99
68251;DHT22;55066;51.560;4.642;2022-11-14T18:44:37;6.24;99.99
68251;DHT22;55066;51.560;4.642;2022-11-14T18:47:21;6.34;99.99
68251;DHT22;55066;51.560;4.642;2022-11-14T18:50:06;6.31;99.99
68251;DHT22;55066;51.560;4.642;2022-11-14T18:52:50;6.34;99.99
68251;DHT22;55066;51.560;4.642;2022-11-14T18:55:40;6.32;99.99
68251;DHT22;55066;51.560;4.642;2022-11-14T18:58:24;6.35;99.99
68251;DHT22;55066;51.560;4.642;2022-11-14T19:01:09;6.49;99.99
68251;DHT22;55066;51.560;4.642;2022-11-14T19:04:04;6.42;99.99
68251;DHT22;55066;51.560;4.642;2022-11-14T19:06:48;6.36;99.99
68251;DHT22;55066;51.560;4.642;2022-11-14T19:09:32;6.45;99.99
68251;DHT22;55066;51.560;4.642;2022-11-14T19:12:16;6.48;99.99
68251;DHT22;55066;51.560;4.642;2022-11-14T19:15:08;6.42;99.99
68251;DHT22;55066;51.560;4.642;2022-11-14T19:17:53;6.35;99.99
68251;DHT22;55066;51.560;4.642;2022-11-14T19:20:37;6.39;99.99
68251;DHT22;55066;51.560;4.642;2022-11-14T19:23:21;6.45;99.99
68251;DHT22;55066;51.560;4.642;2022-11-14T19:26:05;6.42;99.99
68251;DHT22;55066;51.560;4.642;2022-11-14T19:28:49;6.44;99.99
68251;DHT22;55066;51.560;4.642;2022-11-14T19:31:33;6.49;99.99
68251;DHT22;55066;51.560;4.642;2022-11-14T19:34:17;6.52;99.99
68251;DHT22;55066;51.560;4.642;2022-11-14T19:37:01;6.59;99.99
68251;DHT22;55066;51.560;4.642;2022-11-14T19:39:45;6.56;99.99
68251;DHT22;55066;51.560;4.642;2022-11-14T19:42:29;6.56;99.99
68251;DHT22;55066;51.560;4.642;2022-11-14T19:45:13;6.65;99.99
68251;DHT22;55066;51.560;4.642;2022-11-14T19:47:56;6.56;99.99
68251;DHT22;55066;51.560;4.642;2022-11-14T19:50:41;6.63;99.99
68251;DHT22;55066;51.560;4.642;2022-11-14T19:53:24;6.59;99.99
68251;DHT22;55066;51.560;4.642;2022-11-14T19:56:11;6.62;99.99
68251;DHT22;55066;51.560;4.642;2022-11-14T19:58:55;6.68;99.99
68251;DHT22;55066;51.560;4.642;2022-11-14T20:01:39;6.63;99.99
68251;DHT22;55066;51.560;4.642;2022-11-14T20:04:26;6.63;99.99
68251;DHT22;55066;51.560;4.642;2022-11-14T20:07:10;6.63;99.99
68251;DHT22;55066;51.560;4.642;2022-11-14T20:09:54;6.63;99.99
68251;DHT22;55066;51.560;4.642;2022-11-14T20:12:38;6.66;99.99
68251;DHT22;55066;51.560;4.642;2022-11-14T20:15:22;6.68;99.99
68251;DHT22;55066;51.560;4.642;2022-11-14T20:18:06;6.68;99.99
68251;DHT22;55066;51.560;4.642;2022-11-14T20:20:49;6.71;99.99
68251;DHT22;55066;51.560;4.642;2022-11-14T20:23:34;6.68;99.99
68251;DHT22;55066;51.560;4.642;2022-11-14T20:26:18;6.69;99.99
68251;DHT22;55066;51.560;4.642;2022-11-14T20:29:02;6.75;99.99
68251;DHT22;55066;51.560;4.642;2022-11-14T20:31:49;6.66;99.99
68251;DHT22;55066;51.560;4.642;2022-11-14T20:34:33;6.71;99.99
68251;DHT22;55066;51.560;4.642;2022-11-14T20:37:17;6.73;99.99
68251;DHT22;55066;51.560;4.642;2022-11-14T20:40:01;6.76;99.99
68251;DHT22;55066;51.560;4.642;2022-11-14T20:42:48;6.79;99.99
68251;DHT22;55066;51.560;4.642;2022-11-14T20:45:32;6.77;99.99
68251;DHT22;55066;51.560;4.642;2022-11-14T20:48:16;6.79;99.99
68251;DHT22;55066;51.560;4.642;2022-11-14T20:51:04;6.73;99.99
68251;DHT22;55066;51.560;4.642;2022-11-14T20:53:50;6.76;99.99
68251;DHT22;55066;51.560;4.642;2022-11-14T20:56:34;6.76;99.99
68251;DHT22;55066;51.560;4.642;2022-11-14T20:59:17;6.82;99.99
68251;DHT22;55066;51.560;4.642;2022-11-14T21:02:02;6.82;99.99
68251;DHT22;55066;51.560;4.642;2022-11-14T21:04:46;6.90;99.99
68251;DHT22;55066;51.560;4.642;2022-11-14T21:07:30;6.89;99.99
68251;DHT22;55066;51.560;4.642;2022-11-14T21:10:14;6.84;99.99
68251;DHT22;55066;51.560;4.642;2022-11-14T21:13:19;6.86;99.99
68251;DHT22;55066;51.560;4.642;2022-11-14T21:16:25;6.90;99.99
68251;DHT22;55066;51.560;4.642;2022-11-14T21:19:09;6.90;99.99
68251;DHT22;55066;51.560;4.642;2022-11-14T21:21:53;6.94;99.99
68251;DHT22;55066;51.560;4.642;2022-11-14T21:24:37;6.93;99.99
68251;DHT22;55066;51.560;4.642;2022-11-14T21:27:21;6.94;99.99
68251;DHT22;55066;51.560;4.642;2022-11-14T21:30:05;6.97;99.99
68251;DHT22;55066;51.560;4.642;2022-11-14T21:32:52;7.01;99.99
68251;DHT22;55066;51.560;4.642;2022-11-14T21:35:36;7.01;99.99
68251;DHT22;55066;51.560;4.642;2022-11-14T21:38:20;7.01;99.99
68251;DHT22;55066;51.560;4.642;2022-11-14T21:41:04;7.01;99.99
68251;DHT22;55066;51.560;4.642;2022-11-14T21:43:57;7.01;99.99
68251;DHT22;55066;51.560;4.642;2022-11-14T21:46:42;6.97;99.99
68251;DHT22;55066;51.560;4.642;2022-11-14T21:49:28;6.99;99.99
68251;DHT22;55066;51.560;4.642;2022-11-14T21:52:13;7.00;99.99
68251;DHT22;55066;51.560;4.642;2022-11-14T21:54:56;6.97;99.99
68251;DHT22;55066;51.560;4.642;2022-11-14T21:57:41;6.94;99.99
68251;DHT22;55066;51.560;4.642;2022-11-14T22:00:24;6.96;99.99
68251;DHT22;55066;51.560;4.642;2022-11-14T22:03:13;6.96;99.99
68251;DHT22;55066;51.560;4.642;2022-11-14T22:06:16;6.96;99.99
68251;DHT22;55066;51.560;4.642;2022-11-14T22:09:00;7.00;99.99
68251;DHT22;55066;51.560;4.642;2022-11-14T22:11:44;6.97;99.99
68251;DHT22;55066;51.560;4.642;2022-11-14T22:14:28;7.00;99.99
68251;DHT22;55066;51.560;4.642;2022-11-14T22:17:12;7.01;99.99
68251;DHT22;55066;51.560;4.642;2022-11-14T22:19:56;7.00;99.99
68251;DHT22;55066;51.560;4.642;2022-11-14T22:22:40;6.99;99.99
68251;DHT22;55066;51.560;4.642;2022-11-14T22:25:24;7.08;99.99
68251;DHT22;55066;51.560;4.642;2022-11-14T22:28:08;7.04;99.99
68251;DHT22;55066;51.560;4.642;2022-11-14T22:31:12;7.14;99.99
68251;DHT22;55066;51.560;4.642;2022-11-14T22:33:57;7.14;99.99
68251;DHT22;55066;51.560;4.642;2022-11-14T22:36:41;7.11;99.99
68251;DHT22;55066;51.560;4.642;2022-11-14T22:39:25;7.12;99.99
68251;DHT22;55066;51.560;4.642;2022-11-14T22:42:09;7.05;99.99
68251;DHT22;55066;51.560;4.642;2022-11-14T22:44:54;7.12;99.99
68251;DHT22;55066;51.560;4.642;2022-11-14T22:47:37;7.12;99.99
68251;DHT22;55066;51.560;4.642;2022-11-14T22:50:21;7.24;99.99
68251;DHT22;55066;51.560;4.642;2022-11-14T22:53:05;7.15;99.99
68251;DHT22;55066;51.560;4.642;2022-11-14T22:55:49;7.11;99.99
68251;DHT22;55066;51.560;4.642;2022-11-14T22:58:35;7.04;99.99
68251;DHT22;55066;51.560;4.642;2022-11-14T23:01:21;7.04;99.99
68251;DHT22;55066;51.560;4.642;2022-11-14T23:04:06;6.99;99.99
68251;DHT22;55066;51.560;4.642;2022-11-14T23:06:50;7.10;99.99
68251;DHT22;55066;51.560;4.642;2022-11-14T23:09:34;7.08;99.99
68251;DHT22;55066;51.560;4.642;2022-11-14T23:12:18;7.21;99.99
68251;DHT22;55066;51.560;4.642;2022-11-14T23:15:02;7.08;99.99
68251;DHT22;55066;51.560;4.642;2022-11-14T23:17:46;7.10;99.99